Time;durP1;ratioP1;P1;durP2;ratioP2;P2;SDS_P1;SDS_P2;PMS_P1;PMS_P2;Temp;Humidity;BMP_temperature;BMP_pressure;BME280_temperature;BME280_humidity;BME280_pressure;Samples;Min_cycle;Max_cycle;Signal;HPM_P1;HPM_P2
2021/06/10 00:02:17;;;;;;;25.27;20.63;;;23.30;62.60;;;;;;5093086;28;20389;-59
2021/06/10 00:04:43;;;;;;;24.50;20.95;;;23.30;62.60;;;;;;5092500;28;20024;-59
2021/06/10 00:07:09;;;;;;;23.67;19.58;;;23.30;62.60;;;;;;5092728;28;20184;-59
2021/06/10 00:09:35;;;;;;;24.08;20.23;;;23.30;62.60;;;;;;5092434;28;20020;-59
2021/06/10 00:12:02;;;;;;;22.80;19.27;;;23.30;62.60;;;;;;5092628;28;20040;-59
2021/06/10 00:14:28;;;;;;;23.10;18.45;;;23.30;62.60;;;;;;5092234;28;20469;-59
2021/06/10 00:16:54;;;;;;;21.25;18.65;;;23.30;62.60;;;;;;5092479;28;20034;-60
2021/06/10 00:19:19;;;;;;;24.25;19.20;;;23.30;62.60;;;;;;5092896;28;20024;-59
2021/06/10 00:21:45;;;;;;;23.42;18.10;;;23.30;62.60;;;;;;5092585;28;20028;-59
2021/06/10 00:24:11;;;;;;;20.92;17.10;;;23.30;62.60;;;;;;5094363;28;20059;-59
2021/06/10 00:26:37;;;;;;;22.13;16.30;;;23.30;62.60;;;;;;5096030;28;20028;-59
2021/06/10 00:29:03;;;;;;;21.15;17.08;;;23.30;62.50;;;;;;5096131;28;20093;-59
2021/06/10 00:31:31;;;;;;;19.98;15.50;;;23.30;62.60;;;;;;5096063;28;20028;-59
2021/06/10 00:33:56;;;;;;;21.13;16.20;;;23.30;62.50;;;;;;5096039;28;20078;-59
2021/06/10 00:36:23;;;;;;;17.90;14.95;;;23.30;62.60;;;;;;5096062;28;20028;-59
2021/06/10 00:38:48;;;;;;;19.00;15.98;;;23.30;62.60;;;;;;5095922;28;20028;-59
2021/06/10 00:41:14;;;;;;;20.40;15.32;;;23.30;62.60;;;;;;5095752;28;20035;-59
2021/06/10 00:43:40;;;;;;;17.25;15.23;;;23.30;62.60;;;;;;5095952;28;20032;-59
2021/06/10 00:46:06;;;;;;;20.50;15.30;;;23.30;62.60;;;;;;5095809;28;20031;-59
2021/06/10 00:48:34;;;;;;;20.88;15.63;;;23.30;62.50;;;;;;5095401;28;20380;-59
2021/06/10 00:51:00;;;;;;;18.88;14.68;;;23.30;62.50;;;;;;5095910;28;20462;-59
2021/06/10 00:53:26;;;;;;;21.45;15.98;;;23.30;62.50;;;;;;5095591;28;20046;-59
2021/06/10 00:55:58;;;;;;;15.43;13.77;;;23.30;62.50;;;;;;5095870;28;20456;-59
2021/06/10 00:58:25;;;;;;;15.25;12.82;;;23.30;62.50;;;;;;5095453;28;20024;-59
2021/06/10 01:00:51;;;;;;;16.27;12.45;;;23.30;62.50;;;;;;5095520;28;20024;-59
2021/06/10 01:03:17;;;;;;;15.55;13.18;;;23.30;62.50;;;;;;5095491;28;20032;-59
2021/06/10 01:05:46;;;;;;;15.15;12.90;;;23.30;62.50;;;;;;5095630;28;20377;-59
2021/06/10 01:08:37;;;;;;;16.08;13.15;;;23.30;62.50;;;;;;5095215;28;20024;-59
2021/06/10 01:11:38;;;;;;;16.20;12.35;;;23.30;62.50;;;;;;5095726;28;20122;-59
2021/06/10 01:14:17;;;;;;;16.58;12.43;;;23.30;62.50;;;;;;5094350;28;20121;-59
2021/06/10 01:16:46;;;;;;;14.77;11.57;;;23.30;62.50;;;;;;5095583;28;20035;-59
2021/06/10 01:19:21;;;;;;;14.77;11.93;;;23.30;62.50;;;;;;5094955;28;20107;-59
2021/06/10 01:21:48;;;;;;;12.75;11.25;;;23.30;62.50;;;;;;5095414;28;20579;-59
2021/06/10 01:24:39;;;;;;;12.95;11.32;;;23.30;62.50;;;;;;5095006;28;20020;-59
2021/06/10 01:27:30;;;;;;;12.57;11.07;;;23.30;62.50;;;;;;5095256;28;20385;-60
2021/06/10 01:30:09;;;;;;;13.30;10.63;;;23.30;62.50;;;;;;5095161;28;20024;-59
2021/06/10 01:32:38;;;;;;;13.60;11.00;;;23.30;62.50;;;;;;5094980;28;20067;-59
2021/06/10 01:35:06;;;;;;;12.02;9.60;;;23.20;62.50;;;;;;5094254;28;20035;-59
2021/06/10 01:37:34;;;;;;;10.80;9.65;;;23.30;62.60;;;;;;5095084;28;20047;-59
2021/06/10 01:40:03;;;;;;;13.27;10.63;;;23.30;62.50;;;;;;5094315;28;20048;-59
2021/06/10 01:42:30;;;;;;;11.77;9.50;;;23.30;62.60;;;;;;5094337;28;20119;-59
2021/06/10 01:44:58;;;;;;;11.05;9.40;;;23.30;62.50;;;;;;5094886;28;20032;-59
2021/06/10 01:47:26;;;;;;;11.02;9.18;;;23.20;62.50;;;;;;5094683;28;20058;-59
2021/06/10 01:49:53;;;;;;;10.82;9.63;;;23.20;62.50;;;;;;5094502;28;20097;-59
2021/06/10 01:52:20;;;;;;;10.32;8.98;;;23.20;62.50;;;;;;5094457;28;20092;-59
2021/06/10 01:54:47;;;;;;;11.35;10.13;;;23.20;62.50;;;;;;5095024;28;20028;-59
2021/06/10 01:57:14;;;;;;;10.63;9.05;;;23.20;62.50;;;;;;5094291;28;20067;-59
2021/06/10 01:59:41;;;;;;;11.55;9.50;;;23.20;62.40;;;;;;5094547;28;20035;-59
2021/06/10 02:02:07;;;;;;;10.73;9.43;;;23.20;62.40;;;;;;5094284;28;20024;-59
2021/06/10 02:04:33;;;;;;;10.18;8.77;;;23.20;62.40;;;;;;5094486;28;20035;-59
2021/06/10 02:07:00;;;;;;;11.60;8.93;;;23.20;62.40;;;;;;5094087;28;20031;-59
2021/06/10 02:09:26;;;;;;;10.95;9.65;;;23.20;62.50;;;;;;5094573;28;20028;-59
2021/06/10 02:11:53;;;;;;;10.85;8.52;;;23.20;62.50;;;;;;5092864;28;20077;-59
2021/06/10 02:14:19;;;;;;;9.77;8.45;;;23.20;62.40;;;;;;5094314;28;20024;-59
2021/06/10 02:16:47;;;;;;;9.32;8.20;;;23.20;62.30;;;;;;5093832;28;20024;-59
2021/06/10 02:19:15;;;;;;;10.50;7.50;;;23.20;62.30;;;;;;5094173;28;20533;-59
2021/06/10 02:21:41;;;;;;;11.07;7.68;;;23.20;62.30;;;;;;5094092;28;20458;-59
2021/06/10 02:24:07;;;;;;;10.13;7.60;;;23.20;62.30;;;;;;5094004;28;20077;-59
2021/06/10 02:26:33;;;;;;;9.52;7.60;;;23.20;62.30;;;;;;5094065;28;20085;-59
2021/06/10 02:28:58;;;;;;;9.20;7.20;;;23.20;62.20;;;;;;5093704;28;20488;-59
2021/06/10 02:31:24;;;;;;;9.48;8.25;;;23.20;62.30;;;;;;5093889;28;20032;-59
2021/06/10 02:33:50;;;;;;;9.13;8.18;;;23.20;62.20;;;;;;5093361;28;20040;-59
2021/06/10 02:36:17;;;;;;;9.05;7.60;;;23.20;62.20;;;;;;5093579;28;20035;-59
2021/06/10 02:38:53;;;;;;;8.65;7.45;;;23.20;62.20;;;;;;5093451;28;20051;-59
2021/06/10 02:41:21;;;;;;;8.55;7.15;;;23.20;62.10;;;;;;5093627;28;20545;-59
2021/06/10 02:43:50;;;;;;;8.07;7.28;;;23.20;62.10;;;;;;5093249;28;20032;-59
2021/06/10 02:46:16;;;;;;;9.90;6.85;;;23.20;62.00;;;;;;5092935;28;20031;-59
2021/06/10 02:48:43;;;;;;;8.13;6.93;;;23.20;62.00;;;;;;5091728;28;20040;-60
2021/06/10 02:51:11;;;;;;;7.90;6.43;;;23.20;62.00;;;;;;5093624;28;20035;-59
2021/06/10 02:53:39;;;;;;;8.05;6.70;;;23.20;61.90;;;;;;5093450;28;20032;-59
2021/06/10 02:56:07;;;;;;;10.98;6.78;;;23.20;61.90;;;;;;5093604;28;20032;-59
2021/06/10 02:58:34;;;;;;;8.25;6.25;;;23.20;61.80;;;;;;5093451;28;20408;-59
2021/06/10 03:01:06;;;;;;;7.93;6.57;;;23.20;61.80;;;;;;5093308;28;20020;-59
2021/06/10 03:03:33;;;;;;;7.18;6.05;;;23.20;61.80;;;;;;5093441;28;20043;-59
2021/06/10 03:06:00;;;;;;;7.97;5.93;;;23.20;61.80;;;;;;5093284;28;20024;-59
2021/06/10 03:08:28;;;;;;;8.93;6.10;;;23.20;61.70;;;;;;5093274;28;20028;-59
2021/06/10 03:10:58;;;;;;;9.13;6.38;;;23.20;61.70;;;;;;5093026;28;20028;-59
2021/06/10 03:13:25;;;;;;;7.03;5.88;;;23.20;61.70;;;;;;5093236;28;20464;-59
2021/06/10 03:15:52;;;;;;;7.47;6.28;;;23.20;61.70;;;;;;5092727;28;20028;-59
2021/06/10 03:18:21;;;;;;;8.10;6.18;;;23.20;61.70;;;;;;5093038;28;20029;-59
2021/06/10 03:20:47;;;;;;;8.35;6.22;;;23.10;61.70;;;;;;5092999;28;20020;-59
2021/06/10 03:23:14;;;;;;;7.25;5.88;;;23.20;61.60;;;;;;5093014;28;20414;-59
2021/06/10 03:25:41;;;;;;;8.43;5.85;;;23.20;61.60;;;;;;5092925;28;20067;-59
2021/06/10 03:28:08;;;;;;;6.72;5.43;;;23.20;61.70;;;;;;5092955;28;20031;-59
2021/06/10 03:30:35;;;;;;;7.03;5.65;;;23.20;61.70;;;;;;5092648;28;20024;-59
2021/06/10 03:33:03;;;;;;;6.38;5.70;;;23.10;61.60;;;;;;5093039;28;20059;-59
2021/06/10 03:35:29;;;;;;;7.03;5.32;;;23.10;61.60;;;;;;5092863;28;20028;-59
2021/06/10 03:37:55;;;;;;;6.82;4.95;;;23.20;61.70;;;;;;5092919;28;20128;-59
2021/06/10 03:40:23;;;;;;;6.95;5.28;;;23.10;61.60;;;;;;5093011;28;20052;-59
2021/06/10 03:42:50;;;;;;;8.48;6.03;;;23.10;61.60;;;;;;5092580;28;20469;-59
2021/06/10 03:45:17;;;;;;;7.80;5.28;;;23.20;61.70;;;;;;5092973;28;20063;-59
2021/06/10 03:47:44;;;;;;;8.27;5.50;;;23.10;61.60;;;;;;5092621;28;20426;-59
2021/06/10 03:50:11;;;;;;;5.93;5.32;;;23.10;61.60;;;;;;5092662;28;20526;-59
2021/06/10 03:52:37;;;;;;;7.63;5.65;;;23.10;61.60;;;;;;5092832;28;20036;-59
2021/06/10 03:55:05;;;;;;;5.97;5.00;;;23.10;61.60;;;;;;5092874;28;20529;-59
2021/06/10 03:57:32;;;;;;;6.72;5.38;;;23.10;61.60;;;;;;5093008;28;20028;-59
2021/06/10 03:59:58;;;;;;;6.68;4.88;;;23.10;61.60;;;;;;5096797;28;20028;-59
2021/06/10 04:02:24;;;;;;;5.70;5.07;;;23.10;61.60;;;;;;5096428;28;20474;-59
2021/06/10 04:04:50;;;;;;;6.22;5.60;;;23.10;61.60;;;;;;5097042;28;20035;-59
2021/06/10 04:07:16;;;;;;;8.43;5.60;;;23.10;61.60;;;;;;5096584;28;20544;-59
2021/06/10 04:09:41;;;;;;;7.72;4.85;;;23.10;61.70;;;;;;5095268;28;20042;-59
2021/06/10 04:12:08;;;;;;;5.70;4.53;;;23.10;61.70;;;;;;5096526;28;20466;-59
2021/06/10 04:14:33;;;;;;;6.75;4.53;;;23.10;61.70;;;;;;5096163;28;20118;-59
2021/06/10 04:17:00;;;;;;;5.05;4.35;;;23.10;61.60;;;;;;5096310;28;20103;-59
2021/06/10 04:19:25;;;;;;;6.25;5.32;;;23.10;61.60;;;;;;5096352;28;20024;-59
2021/06/10 04:21:51;;;;;;;6.60;4.60;;;23.20;61.70;;;;;;5096431;28;20028;-59
2021/06/10 04:24:16;;;;;;;6.47;4.40;;;23.10;61.60;;;;;;5096248;28;20020;-59
2021/06/10 04:26:42;;;;;;;5.22;4.45;;;23.10;61.60;;;;;;5096164;28;20024;-59
2021/06/10 04:29:08;;;;;;;6.93;4.95;;;23.10;61.70;;;;;;5095985;28;20107;-59
2021/06/10 04:31:33;;;;;;;7.22;5.10;;;23.10;61.70;;;;;;5096232;28;20024;-59
2021/06/10 04:33:59;;;;;;;6.90;5.15;;;23.10;61.70;;;;;;5095940;28;20043;-59
2021/06/10 04:36:25;;;;;;;6.55;5.05;;;23.10;61.70;;;;;;5096421;28;20395;-59
2021/06/10 04:38:51;;;;;;;5.30;4.38;;;23.10;61.80;;;;;;5096213;28;20031;-59
2021/06/10 04:41:17;;;;;;;7.00;4.38;;;23.10;61.70;;;;;;5095687;28;20028;-59
2021/06/10 04:43:43;;;;;;;5.18;4.32;;;23.10;61.70;;;;;;5096421;28;20032;-60
2021/06/10 04:46:10;;;;;;;6.20;4.50;;;23.10;61.90;;;;;;5095974;28;20028;-59
2021/06/10 04:48:37;;;;;;;6.47;4.53;;;23.10;61.90;;;;;;5095690;28;20083;-59
2021/06/10 04:51:03;;;;;;;5.78;4.70;;;23.10;62.00;;;;;;5095843;28;20032;-59
2021/06/10 04:53:29;;;;;;;5.40;3.88;;;23.10;61.90;;;;;;5095719;28;20028;-59
2021/06/10 04:55:55;;;;;;;4.93;4.43;;;23.10;61.90;;;;;;5095318;28;20081;-60
2021/06/10 04:58:21;;;;;;;5.93;4.20;;;23.10;61.80;;;;;;5095403;28;20623;-59
2021/06/10 05:00:46;;;;;;;5.75;4.35;;;23.10;61.80;;;;;;5095414;28;20027;-59
2021/06/10 05:03:12;;;;;;;6.05;4.40;;;23.10;61.80;;;;;;5095992;28;20039;-59
2021/06/10 05:05:42;;;;;;;5.90;4.75;;;23.10;61.70;;;;;;5095419;28;20035;-59
2021/06/10 05:08:07;;;;;;;6.30;4.38;;;23.10;61.80;;;;;;5095555;28;20028;-59
2021/06/10 05:10:33;;;;;;;8.57;5.40;;;23.10;61.90;;;;;;5094539;28;20028;-59
2021/06/10 05:12:59;;;;;;;5.47;4.43;;;23.10;61.80;;;;;;5095324;28;20040;-59
2021/06/10 05:15:25;;;;;;;4.88;4.05;;;23.10;61.90;;;;;;5095464;28;20063;-59
2021/06/10 05:17:51;;;;;;;5.07;4.50;;;23.10;62.60;;;;;;5095000;28;20055;-59
2021/06/10 05:20:17;;;;;;;5.95;4.70;;;23.10;61.80;;;;;;5095042;28;20031;-60
2021/06/10 05:22:43;;;;;;;6.57;4.72;;;23.10;61.80;;;;;;5095074;28;20039;-59
2021/06/10 05:25:09;;;;;;;6.20;4.78;;;23.10;61.80;;;;;;5094899;28;20028;-59
2021/06/10 05:27:35;;;;;;;5.70;4.72;;;23.10;61.80;;;;;;5095078;28;20032;-59
2021/06/10 05:30:02;;;;;;;5.20;4.15;;;23.10;61.90;;;;;;5095188;28;20389;-59
2021/06/10 05:32:28;;;;;;;5.38;4.47;;;23.10;61.80;;;;;;5094589;28;20512;-59
2021/06/10 05:34:55;;;;;;;8.80;4.75;;;23.10;61.90;;;;;;5094949;28;20032;-60
2021/06/10 05:37:20;;;;;;;5.47;4.07;;;23.10;62.10;;;;;;5094367;28;20085;-59
2021/06/10 05:39:46;;;;;;;5.40;4.32;;;23.10;61.70;;;;;;5094711;28;20048;-59
2021/06/10 05:42:14;;;;;;;5.72;4.82;;;23.10;61.80;;;;;;5094844;28;20078;-59
2021/06/10 05:44:39;;;;;;;7.93;4.95;;;23.10;61.70;;;;;;5094790;28;20028;-59
2021/06/10 05:47:05;;;;;;;5.20;4.40;;;23.10;61.60;;;;;;5094368;28;20074;-59
2021/06/10 05:49:31;;;;;;;6.53;4.53;;;23.10;61.60;;;;;;5094447;28;20058;-59
2021/06/10 05:51:57;;;;;;;6.10;4.40;;;23.10;61.60;;;;;;5094707;28;20035;-59
2021/06/10 05:54:22;;;;;;;6.60;4.50;;;23.10;61.70;;;;;;5094325;28;20020;-59
2021/06/10 05:56:50;;;;;;;5.75;5.00;;;23.10;61.60;;;;;;5094689;28;20492;-59
2021/06/10 05:59:16;;;;;;;4.97;4.13;;;23.10;61.60;;;;;;5093326;28;20024;-59
2021/06/10 06:01:42;;;;;;;5.45;4.45;;;23.10;61.60;;;;;;5094392;28;20024;-59
2021/06/10 06:04:07;;;;;;;5.03;3.83;;;23.10;61.60;;;;;;5094154;28;20028;-59
2021/06/10 06:06:33;;;;;;;5.13;3.92;;;23.10;61.70;;;;;;5094261;28;20377;-59
2021/06/10 06:08:59;;;;;;;5.38;4.22;;;23.10;61.70;;;;;;5093824;28;20025;-59
2021/06/10 06:11:24;;;;;;;4.93;3.95;;;23.10;61.70;;;;;;5094399;28;20028;-59
2021/06/10 06:13:55;;;;;;;6.53;4.43;;;23.10;61.70;;;;;;5094410;28;20140;-59
2021/06/10 06:16:22;;;;;;;5.20;3.90;;;23.10;61.60;;;;;;5094276;28;20055;-59
2021/06/10 06:18:48;;;;;;;5.10;4.40;;;23.10;61.50;;;;;;5094011;28;20021;-59
2021/06/10 06:21:14;;;;;;;5.55;4.47;;;23.10;61.50;;;;;;5093029;28;20039;-59
2021/06/10 06:23:43;;;;;;;5.80;4.32;;;23.10;61.50;;;;;;5093825;28;20106;-59
2021/06/10 06:26:10;;;;;;;5.43;4.07;;;23.10;61.50;;;;;;5093941;28;20034;-59
2021/06/10 06:28:37;;;;;;;6.18;4.40;;;23.10;61.40;;;;;;5094029;28;20063;-59
2021/06/10 06:31:03;;;;;;;5.75;4.07;;;23.10;61.40;;;;;;5093661;28;20115;-60
2021/06/10 06:33:29;;;;;;;5.32;3.72;;;23.10;61.40;;;;;;5093641;28;20118;-59
2021/06/10 06:35:55;;;;;;;5.07;4.50;;;23.10;61.20;;;;;;5093564;28;20531;-59
2021/06/10 06:38:21;;;;;;;6.18;4.03;;;23.10;61.30;;;;;;5093906;28;20031;-58
2021/06/10 06:40:48;;;;;;;7.05;4.53;;;23.10;61.40;;;;;;5093782;28;20048;-60
2021/06/10 06:43:15;;;;;;;6.97;4.50;;;23.10;61.30;;;;;;5093835;28;20043;-60
2021/06/10 06:45:41;;;;;;;5.35;4.03;;;23.10;61.30;;;;;;5093345;28;20035;-64
2021/06/10 06:48:07;;;;;;;5.88;4.10;;;23.10;61.40;;;;;;5093411;28;20032;-62
2021/06/10 06:50:33;;;;;;;28.98;23.25;;;23.10;61.30;;;;;;5093131;28;20024;-62
2021/06/10 06:52:59;;;;;;;45.88;37.30;;;23.00;61.70;;;;;;5093217;28;20032;-62
2021/06/10 06:55:24;;;;;;;101.05;76.97;;;23.00;61.80;;;;;;5093518;28;20024;-62
2021/06/10 06:57:50;;;;;;;157.38;112.22;;;23.00;61.80;;;;;;5093151;28;20031;-62
2021/06/10 07:00:16;;;;;;;132.75;96.28;;;22.90;61.60;;;;;;5093281;28;20474;-62
2021/06/10 07:02:42;;;;;;;134.90;98.80;;;22.90;61.50;;;;;;5092991;28;20175;-63
2021/06/10 07:05:09;;;;;;;105.57;75.50;;;22.90;61.50;;;;;;5092922;28;20505;-58
2021/06/10 07:07:35;;;;;;;74.88;54.60;;;22.90;61.40;;;;;;5086292;28;20033;-60
2021/06/10 07:10:01;;;;;;;64.35;47.60;;;23.00;61.20;;;;;;5081906;28;20049;-58
2021/06/10 07:12:26;;;;;;;51.85;37.58;;;23.00;61.10;;;;;;5082138;28;20504;-61
2021/06/10 07:14:52;;;;;;;40.63;30.52;;;23.00;60.90;;;;;;5083514;28;20017;-58
2021/06/10 07:17:18;;;;;;;35.15;26.95;;;23.00;60.90;;;;;;5092654;28;20024;-59
2021/06/10 07:19:44;;;;;;;33.92;24.63;;;23.00;60.70;;;;;;5092952;28;20152;-57
2021/06/10 07:22:10;;;;;;;38.03;27.85;;;23.00;60.70;;;;;;5092652;28;20016;-58
2021/06/10 07:24:36;;;;;;;9.32;6.70;;;23.00;60.50;;;;;;5092934;28;20024;-61
2021/06/10 07:27:01;;;;;;;6.78;4.28;;;22.70;58.20;;;;;;5092679;28;20028;-62
2021/06/10 07:29:27;;;;;;;5.00;3.47;;;22.50;59.30;;;;;;5091707;28;20028;-61
2021/06/10 07:31:53;;;;;;;5.18;3.63;;;22.30;59.30;;;;;;5091208;28;20370;-67
2021/06/10 07:34:19;;;;;;;4.65;3.25;;;22.30;59.00;;;;;;5092144;28;20111;-61
2021/06/10 07:36:44;;;;;;;3.95;3.10;;;22.30;59.30;;;;;;5092676;28;20446;-61
2021/06/10 07:39:11;;;;;;;4.85;3.53;;;22.40;59.30;;;;;;5092363;28;20055;-61
2021/06/10 07:41:38;;;;;;;4.57;3.53;;;22.40;59.30;;;;;;5092823;28;20085;-61
2021/06/10 07:44:04;;;;;;;4.60;3.38;;;22.40;59.20;;;;;;5092688;28;20511;-61
2021/06/10 07:46:30;;;;;;;6.78;3.63;;;22.50;60.00;;;;;;5092667;28;20111;-61
2021/06/10 07:48:56;;;;;;;4.30;3.80;;;22.60;61.10;;;;;;5092290;28;20035;-61
2021/06/10 07:51:22;;;;;;;9.32;3.83;;;22.60;60.70;;;;;;5092725;28;20028;-60
2021/06/10 07:53:47;;;;;;;6.10;4.70;;;22.50;61.40;;;;;;5092455;28;20032;-60
2021/06/10 07:56:13;;;;;;;5.57;4.30;;;22.50;62.10;;;;;;5092992;28;20066;-60
2021/06/10 07:58:39;;;;;;;6.35;4.00;;;22.50;61.70;;;;;;5092586;28;20458;-61
2021/06/10 08:01:04;;;;;;;5.72;4.30;;;22.50;61.30;;;;;;5092792;28;20020;-61
2021/06/10 08:03:30;;;;;;;5.65;4.07;;;22.50;62.40;;;;;;5092604;28;20039;-62
2021/06/10 08:05:58;;;;;;;5.55;4.10;;;22.50;62.30;;;;;;5092020;28;20027;-62
2021/06/10 08:08:24;;;;;;;4.72;4.05;;;22.50;63.50;;;;;;5089553;28;20375;-63
2021/06/10 08:10:53;;;;;;;5.20;4.40;;;22.60;62.10;;;;;;5088235;28;20032;-64
2021/06/10 08:13:21;;;;;;;5.73;4.37;;;22.60;62.20;;;;;;5090092;28;20052;-61
2021/06/10 08:15:48;;;;;;;4.90;4.05;;;22.60;62.60;;;;;;5092218;28;20051;-61
2021/06/10 08:18:14;;;;;;;7.93;4.40;;;22.60;62.80;;;;;;5092145;28;20020;-61
2021/06/10 08:20:40;;;;;;;7.38;4.50;;;22.70;62.60;;;;;;5092486;28;20111;-62
2021/06/10 08:23:05;;;;;;;8.60;4.75;;;22.70;62.80;;;;;;5092450;28;20028;-61
2021/06/10 08:25:33;;;;;;;7.55;4.57;;;22.70;63.40;;;;;;5092382;28;20458;-61
2021/06/10 08:28:02;;;;;;;6.90;4.90;;;22.70;63.70;;;;;;5092460;28;20029;-62
2021/06/10 08:30:29;;;;;;;6.43;4.80;;;22.70;64.30;;;;;;5092089;28;20020;-62
2021/06/10 08:32:55;;;;;;;7.85;4.55;;;22.70;64.40;;;;;;5092121;28;20462;-61
2021/06/10 08:35:20;;;;;;;7.80;4.90;;;22.80;64.60;;;;;;5092383;28;20028;-61
2021/06/10 08:37:46;;;;;;;8.52;5.70;;;22.80;64.70;;;;;;5092458;28;20028;-61
2021/06/10 08:40:13;;;;;;;6.55;5.28;;;22.80;64.90;;;;;;5092258;28;20073;-61
2021/06/10 08:42:41;;;;;;;6.47;4.82;;;22.80;65.10;;;;;;5092137;28;20525;-61
2021/06/10 08:45:11;;;;;;;6.60;4.72;;;22.90;65.10;;;;;;5093777;28;20028;-61
2021/06/10 08:47:39;;;;;;;6.18;3.80;;;22.90;64.80;;;;;;5095410;28;20047;-61
2021/06/10 08:50:07;;;;;;;5.05;3.83;;;22.90;64.30;;;;;;5095979;28;20052;-61
2021/06/10 08:52:33;;;;;;;5.63;3.75;;;22.90;63.50;;;;;;5095680;28;20105;-61
2021/06/10 08:54:59;;;;;;;6.35;4.25;;;23.00;62.80;;;;;;5095917;28;20115;-65
2021/06/10 08:57:25;;;;;;;4.55;3.65;;;23.00;64.20;;;;;;5095518;28;20020;-61
2021/06/10 08:59:51;;;;;;;5.20;3.95;;;23.00;63.30;;;;;;5095548;28;20035;-61
2021/06/10 09:02:16;;;;;;;6.80;4.60;;;23.00;63.30;;;;;;5095319;28;20043;-61
2021/06/10 09:04:42;;;;;;;5.50;4.57;;;23.00;63.20;;;;;;5095811;28;20421;-61
2021/06/10 09:07:09;;;;;;;6.07;5.03;;;23.10;62.80;;;;;;5095655;28;20024;-62
2021/06/10 09:09:48;;;;;;;5.95;3.85;;;23.10;62.80;;;;;;5095443;28;20028;-61
2021/06/10 09:12:15;;;;;;;5.72;3.65;;;23.10;63.60;;;;;;5095370;28;20071;-61
2021/06/10 09:15:01;;;;;;;6.20;4.65;;;23.00;62.80;;;;;;5095136;28;20036;-61
2021/06/10 09:17:36;;;;;;;7.20;4.00;;;23.00;62.60;;;;;;5095432;28;20077;-61
2021/06/10 09:20:22;;;;;;;5.05;3.67;;;23.00;62.60;;;;;;5095331;28;20051;-61
2021/06/10 09:22:51;;;;;;;5.65;4.25;;;23.10;62.80;;;;;;5094384;28;20070;-62
2021/06/10 09:25:20;;;;;;;5.60;4.10;;;23.00;62.60;;;;;;5095290;28;20067;-60
2021/06/10 09:28:03;;;;;;;7.60;3.95;;;23.10;62.60;;;;;;5092693;28;20020;-66
2021/06/10 09:30:31;;;;;;;5.80;3.80;;;23.10;62.70;;;;;;5093485;28;20016;-63
2021/06/10 09:32:58;;;;;;;7.95;4.38;;;23.20;63.20;;;;;;5080166;28;20106;-63
2021/06/10 09:35:29;;;;;;;5.53;3.72;;;23.20;63.20;;;;;;5074483;28;20032;-61
2021/06/10 09:37:59;;;;;;;5.88;3.80;;;23.20;62.70;;;;;;5074772;28;20028;-61
2021/06/10 09:40:26;;;;;;;6.20;4.55;;;23.30;62.70;;;;;;5074099;28;20051;-62
2021/06/10 09:42:52;;;;;;;6.20;4.93;;;23.30;62.90;;;;;;5074414;28;20135;-62
2021/06/10 09:45:20;;;;;;;7.95;4.90;;;23.30;62.70;;;;;;5074234;28;20051;-59
2021/06/10 09:47:51;;;;;;;5.10;4.40;;;23.30;62.70;;;;;;5073639;28;20060;-62
2021/06/10 09:50:24;;;;;;;5.40;4.40;;;23.30;63.10;;;;;;5074673;28;20024;-61
2021/06/10 09:53:09;;;;;;;6.65;4.47;;;23.30;63.20;;;;;;5074332;28;20124;-63
2021/06/10 09:55:46;;;;;;;7.78;5.00;;;23.30;63.50;;;;;;5073511;28;20017;-63
2021/06/10 09:58:14;;;;;;;5.32;4.40;;;23.30;62.80;;;;;;5074179;28;20033;-64
2021/06/10 10:00:46;;;;;;;6.10;4.07;;;23.30;63.30;;;;;;5074184;28;20046;-61
2021/06/10 10:03:40;;;;;;;8.20;4.97;;;23.30;63.30;;;;;;5073875;28;20029;-63
2021/06/10 10:06:13;;;;;;;5.68;4.43;;;23.40;63.10;;;;;;5072774;28;20474;-63
2021/06/10 10:08:39;;;;;;;5.45;4.75;;;23.40;63.30;;;;;;5073613;28;20017;-64
2021/06/10 10:11:07;;;;;;;5.85;4.70;;;23.40;63.30;;;;;;5073580;28;20097;-67
2021/06/10 10:13:33;;;;;;;7.78;4.88;;;23.40;63.20;;;;;;5073731;28;20068;-72
2021/06/10 10:16:01;;;;;;;6.82;5.22;;;23.40;63.10;;;;;;5073524;28;20052;-66
2021/06/10 10:18:27;;;;;;;7.35;4.85;;;23.40;63.50;;;;;;5073318;28;20028;-62
2021/06/10 10:20:57;;;;;;;8.43;4.90;;;23.40;63.20;;;;;;5073573;28;20525;-63
2021/06/10 10:23:22;;;;;;;5.65;4.20;;;23.40;63.50;;;;;;5073441;28;20028;-69
2021/06/10 10:25:55;;;;;;;5.60;4.82;;;23.40;63.60;;;;;;5073641;28;20032;-66
2021/06/10 10:28:21;;;;;;;5.82;4.80;;;23.40;63.40;;;;;;5073744;28;20025;-64
2021/06/10 10:30:47;;;;;;;7.32;4.97;;;23.40;63.20;;;;;;5073463;28;20028;-72
2021/06/10 10:33:24;;;;;;;8.70;6.78;;;23.40;62.80;;;;;;5073124;28;20032;-69
2021/06/10 10:35:55;;;;;;;6.45;5.30;;;23.50;62.00;;;;;;5073345;28;20024;-65
2021/06/10 10:38:28;;;;;;;;;;;23.50;62.60;;;;;;5073324;28;20027;-63
2021/06/10 10:40:59;;;;;;;6.53;4.63;;;23.50;62.60;;;;;;5073496;28;20396;-68
2021/06/10 10:43:26;;;;;;;6.50;5.05;;;23.50;62.90;;;;;;5073310;28;20489;-61
2021/06/10 10:46:20;;;;;;;10.80;6.07;;;23.50;63.00;;;;;;5072703;28;20036;-61
2021/06/10 10:48:51;;;;;;;11.50;5.78;;;23.50;62.60;;;;;;5070022;28;20442;-66
2021/06/10 10:51:25;;;;;;;;;;;23.60;62.90;;;;;;5073713;28;20028;-61
2021/06/10 10:53:57;;;;;;;105.38;95.32;;;23.60;63.00;;;;;;5072258;28;19919;-64
2021/06/10 10:56:40;;;;;;;241.82;217.70;;;23.70;63.00;;;;;;5071838;28;20032;-62
2021/06/10 10:59:10;;;;;;;209.77;188.93;;;23.80;62.50;;;;;;5072933;28;20032;-64
2021/06/10 11:01:36;;;;;;;198.55;178.93;;;23.70;62.50;;;;;;5072584;28;20234;-64
2021/06/10 11:04:02;;;;;;;162.20;146.73;;;23.80;62.60;;;;;;5072736;28;20112;-62
2021/06/10 11:06:28;;;;;;;127.82;115.75;;;23.80;62.40;;;;;;5071650;28;20028;-61
2021/06/10 11:08:58;;;;;;;95.28;85.78;;;23.80;62.50;;;;;;5071564;28;20028;-60
2021/06/10 11:11:53;;;;;;;82.85;74.72;;;23.80;62.30;;;;;;5072663;28;20025;-60
2021/06/10 11:14:38;;;;;;;72.00;64.53;;;23.80;62.50;;;;;;5072539;28;20048;-64
2021/06/10 11:17:23;;;;;;;61.63;55.00;;;23.90;63.10;;;;;;5077665;28;20024;-61
2021/06/10 11:19:51;;;;;;;53.03;47.47;;;23.90;63.10;;;;;;5072345;28;20449;-62
2021/06/10 11:22:39;;;;;;;52.83;47.13;;;23.90;63.20;;;;;;5082304;28;20024;-60
2021/06/10 11:25:11;;;;;;;48.45;39.10;;;23.90;63.20;;;;;;5092876;28;20031;-59
2021/06/10 11:27:43;;;;;;;39.85;35.65;;;23.90;64.50;;;;;;5093029;28;20028;-59
2021/06/10 11:30:11;;;;;;;38.67;31.60;;;23.90;63.90;;;;;;5091929;28;20114;-61
2021/06/10 11:33:12;;;;;;;36.17;30.45;;;23.90;63.50;;;;;;5092907;28;20040;-60
2021/06/10 11:35:41;;;;;;;31.73;27.90;;;23.80;63.90;;;;;;5092542;28;20035;-60
2021/06/10 11:38:31;;;;;;;29.00;22.13;;;23.80;64.00;;;;;;5091884;28;20116;-59
2021/06/10 11:41:04;;;;;;;22.15;19.63;;;23.80;63.50;;;;;;5092271;28;20047;-61
2021/06/10 11:43:32;;;;;;;21.95;18.45;;;23.80;63.60;;;;;;5092527;28;20531;-60
2021/06/10 11:46:00;;;;;;;17.02;15.23;;;23.80;63.40;;;;;;5091965;28;20024;-59
2021/06/10 11:48:35;;;;;;;16.73;14.15;;;23.80;63.30;;;;;;5092518;28;20073;-60
2021/06/10 11:51:02;;;;;;;16.80;12.82;;;23.80;62.80;;;;;;5092361;28;20032;-60
2021/06/10 11:53:29;;;;;;;14.68;12.98;;;23.80;62.80;;;;;;5092329;28;20454;-61
2021/06/10 11:55:57;;;;;;;15.43;11.88;;;23.80;62.60;;;;;;5092434;28;20028;-60
2021/06/10 11:58:30;;;;;;;15.95;11.57;;;23.80;62.80;;;;;;5092648;28;20054;-60
2021/06/10 12:00:56;;;;;;;12.35;10.57;;;23.70;63.10;;;;;;5091908;28;20495;-61
2021/06/10 12:03:22;;;;;;;11.07;9.73;;;23.80;62.70;;;;;;5092560;28;20039;-61
2021/06/10 12:05:55;;;;;;;10.95;9.07;;;23.90;62.30;;;;;;5092378;28;20386;-60
2021/06/10 12:08:25;;;;;;;15.95;9.70;;;23.80;62.40;;;;;;5091962;28;20384;-67
2021/06/10 12:10:59;;;;;;;12.90;10.07;;;23.90;62.30;;;;;;5092405;28;20104;-63
2021/06/10 12:13:31;;;;;;;15.50;13.02;;;23.80;62.50;;;;;;5092191;28;20032;-61
2021/06/10 12:16:00;;;;;;;34.35;18.92;;;23.80;62.80;;;;;;5091816;28;20446;-60
2021/06/10 12:18:25;;;;;;;20.27;16.40;;;23.80;63.10;;;;;;5092189;28;20480;-63
2021/06/10 12:20:58;;;;;;;30.60;24.20;;;23.90;60.80;;;;;;5096409;28;20021;-60
2021/06/10 12:23:35;;;;;;;32.28;28.05;;;23.90;61.80;;;;;;5093924;28;20446;-64
2021/06/10 12:26:03;;;;;;;37.45;32.08;;;23.90;62.00;;;;;;5095355;28;20032;-61
2021/06/10 12:28:41;;;;;;;28.77;22.40;;;23.80;62.20;;;;;;5095546;28;20032;-61
2021/06/10 12:31:09;;;;;;;26.65;20.33;;;23.90;60.20;;;;;;5095885;28;20028;-60
2021/06/10 12:33:36;;;;;;;28.10;23.15;;;23.90;60.50;;;;;;5094402;28;20036;-63
2021/06/10 12:36:12;;;;;;;23.40;19.67;;;23.90;61.10;;;;;;5096075;28;20028;-62
2021/06/10 12:38:38;;;;;;;19.75;16.08;;;23.90;60.80;;;;;;5095346;28;20020;-62
2021/06/10 12:41:12;;;;;;;19.90;16.95;;;23.90;59.70;;;;;;5095896;28;20062;-62
2021/06/10 12:43:38;;;;;;;18.50;15.80;;;23.90;60.30;;;;;;5096010;28;20028;-62
2021/06/10 12:46:05;;;;;;;21.83;14.20;;;23.90;60.70;;;;;;5095413;28;20021;-59
2021/06/10 12:48:34;;;;;;;16.08;14.35;;;23.80;60.70;;;;;;5095491;28;20462;-59